Sider Amy — MKWC7 — position and weather

sailwx.info

Track history (hours):
 
Tides and Currents Weather Stations Pressure Air Temp Water Temp Dewpoint Dewpoint Depression Visibility Wind Speed Wind Dir Waves Ship Positions

Sider Amy

Last reported at 2018-May-15 22:28 UTC. Time now 2018-May-24 08:32 UTC.
Position N 34°57' W 009°52'.
Warning: this ship's position is 8 days out of date.

Length 136 m; draft 7.8 m.

Type: Ship. MMSI: 235010170.

Date/timePositionNaut miles runAvg speedWind from/ knotsBaromVisibWave heightAir tempDewpointWater temp
2018-May-15 22:28N 34°57' W 009°52'1512.9
2018-May-15 21:17N 35°12' W 009°54'5413.1
2018-May-15 17:07N 36°06' W 010°02'413.1
2018-May-15 16:51N 36°09' W 010°02'10612.8
2018-May-15 08:34N 37°55' W 010°16'211.8
2018-May-15 08:24N 37°57' W 010°16'511.8
2018-May-15 08:01N 38°01' W 010°17'611.8
2018-May-15 07:31N 38°07' W 010°18'611.7
2018-May-15 07:00N 38°13' W 010°19'611.7
2018-May-15 06:28N 38°19' W 010°19'1211.8
2018-May-15 05:26N 38°31' W 010°21'1311.8
2018-May-15 04:21N 38°44' W 010°22'1912.1
2018-May-15 02:44N 39°04' W 010°22'353 8.3
2018-May-13 08:10N 43°51' W 005°49'3 7.4
2018-May-13 07:46N 43°50' W 005°45'2 7.1
2018-May-13 07:26N 43°50' W 005°42'3 7.0
2018-May-13 06:57N 43°50' W 005°37'3 6.9
2018-May-13 06:30N 43°50' W 005°33'3 6.2
2018-May-13 06:00N 43°49' W 005°28'3 6.0
2018-May-13 05:29N 43°49' W 005°24'3 6.2
2018-May-13 05:00N 43°49' W 005°20'4 6.2
2018-May-13 04:24N 43°48' W 005°15'3 6.3
2018-May-13 03:56N 43°48' W 005°11'3 6.2
2018-May-13 03:22N 43°48' W 005°06'2 6.2
2018-May-13 02:59N 43°48' W 005°03'53 6.0
2018-May-12 18:09N 43°43' W 003°50'1 5.8
2018-May-12 18:00N 43°43' W 003°49'3 5.9
2018-May-12 17:30N 43°43' W 003°45'3 5.6
2018-May-12 17:00N 43°42' W 003°41'3 5.9
2018-May-12 16:30N 43°42' W 003°37'3 6.0
2018-May-12 16:00N 43°41' W 003°33'3 5.7
2018-May-12 15:30N 43°40' W 003°29'3 5.4
2018-May-12 14:58N 43°39' W 003°26'3 5.8
2018-May-12 14:30N 43°38' W 003°22'3 5.6
2018-May-12 13:59N 43°36' W 003°19'2 5.1
2018-May-12 13:30N 43°34' W 003°17'3 5.6
2018-May-12 13:00N 43°32' W 003°14'3 6.0
2018-May-12 12:30N 43°30' W 003°11'3 6.3
2018-May-12 11:59N 43°28' W 003°08'3 6.6
2018-May-12 11:30N 43°25' W 003°06'3 6.8
2018-May-12 11:00N 43°22' W 003°04'1 1.8
2018-May-12 10:30N 43°21' W 003°03'0 0.0
2018-May-12 09:59N 43°21' W 003°03'0 0.0
2018-May-12 09:29N 43°21' W 003°03'0 0.0
2018-May-12 08:59N 43°21' W 003°03'0 0.0
2018-May-12 08:29N 43°21' W 003°03'0 0.0
2018-May-12 07:59N 43°21' W 003°03'0 0.0
2018-May-12 06:44N 43°21' W 003°03'0 0.0
2018-May-12 06:29N 43°21' W 003°03'0 0.0
2018-May-12 05:56N 43°21' W 003°03'0 0.0
2018-May-12 05:29N 43°21' W 003°03'0 0.0
2018-May-12 04:59N 43°21' W 003°03'0 0.0
2018-May-12 04:02N 43°21' W 003°03'0 0.0
2018-May-12 03:53N 43°21' W 003°03'0 0.0
2018-May-12 03:29N 43°21' W 003°03'0 0.0
2018-May-12 02:59N 43°21' W 003°03'0 0.0
2018-May-12 02:17N 43°21' W 003°03'0 0.0
2018-May-12 01:56N 43°21' W 003°03'0 0.0
2018-May-12 01:29N 43°21' W 003°03'0 0.0
2018-May-12 00:59N 43°21' W 003°03'0 0.0
2018-May-12 00:29N 43°21' W 003°03'0 0.0
2018-May-11 23:59N 43°21' W 003°03'0 0.0
2018-May-11 23:11N 43°21' W 003°03'0 0.0
2018-May-11 22:38N 43°21' W 003°03'0 0.0
2018-May-11 22:29N 43°21' W 003°03'0 0.0
2018-May-11 21:53N 43°21' W 003°03'0 0.0
2018-May-11 21:29N 43°21' W 003°03'0 0.0
2018-May-11 20:56N 43°21' W 003°03'0 0.0
2018-May-11 20:20N 43°21' W 003°03'0 0.0
2018-May-11 19:59N 43°21' W 003°03'0 0.0
2018-May-11 19:29N 43°21' W 003°03'0 0.0
2018-May-11 18:59N 43°21' W 003°03'0 0.0
2018-May-11 18:29N 43°21' W 003°03'0 0.0
2018-May-11 17:26N 43°21' W 003°03'0 0.0
2018-May-11 16:59N 43°21' W 003°03'0 0.0
2018-May-11 16:29N 43°21' W 003°03'0 0.0
2018-May-11 15:56N 43°21' W 003°03'0 0.0
2018-May-11 15:26N 43°21' W 003°03'0 0.0
2018-May-11 14:56N 43°21' W 003°03'0 0.0
2018-May-11 14:26N 43°21' W 003°03'0 0.0
2018-May-11 13:02N 43°21' W 003°03'0 0.0
2018-May-11 12:50N 43°21' W 003°03'0 0.0
2018-May-11 12:26N 43°21' W 003°03'0 0.0
2018-May-11 11:56N 43°21' W 003°03'0 0.0
2018-May-11 11:08N 43°21' W 003°03'0 0.0
2018-May-11 10:50N 43°21' W 003°03'0 0.0
2018-May-11 10:29N 43°21' W 003°03'0 0.0
2018-May-11 09:59N 43°21' W 003°03'0 0.0
2018-May-11 09:26N 43°21' W 003°03'0 0.0
2018-May-11 08:59N 43°21' W 003°03'0 0.0
2018-May-11 08:29N 43°21' W 003°03'0 0.0
2018-May-11 07:59N 43°21' W 003°03'0 0.0
2018-May-11 07:26N 43°21' W 003°03'0 0.0
2018-May-11 06:59N 43°21' W 003°03'0 0.0
2018-May-11 06:29N 43°21' W 003°03'0 0.0
2018-May-11 05:53N 43°21' W 003°03'0 0.0
2018-May-11 05:29N 43°21' W 003°03'0 0.0
2018-May-11 04:59N 43°21' W 003°03'0 0.0
2018-May-11 04:29N 43°21' W 003°03'0 0.0
2018-May-11 03:59N 43°21' W 003°03'0 0.0
2018-May-11 03:29N 43°21' W 003°03'0 0.0
2018-May-11 02:59N 43°21' W 003°03'0 0.0
2018-May-11 02:29N 43°21' W 003°03'0 0.0
2018-May-11 01:59N 43°21' W 003°03'0 0.0
2018-May-11 01:11N 43°21' W 003°03'0 0.0
2018-May-11 00:59N 43°21' W 003°03'0 0.0
2018-May-11 00:29N 43°21' W 003°03'0 0.0
2018-May-10 23:59N 43°21' W 003°03'0 0.0
2018-May-10 23:29N 43°21' W 003°03'0 0.0
2018-May-10 22:59N 43°21' W 003°03'0 0.0
2018-May-10 22:29N 43°21' W 003°03'0 0.0
2018-May-10 21:59N 43°21' W 003°03'0 0.0
2018-May-10 21:20N 43°21' W 003°03'0 0.0
2018-May-10 20:59N 43°21' W 003°03'0 0.0
2018-May-10 20:29N 43°21' W 003°03'0 0.0
2018-May-10 19:59N 43°21' W 003°03'0 0.0
2018-May-10 19:29N 43°21' W 003°03'0 0.0
2018-May-10 18:08N 43°21' W 003°03'0 0.0
2018-May-10 17:29N 43°21' W 003°03'0 0.0
2018-May-10 16:59N 43°21' W 003°03'0 0.2
2018-May-10 16:23N 43°21' W 003°03'1 1.4
2018-May-10 16:00N 43°22' W 003°04'1 0.3
2018-May-10 13:09N 43°22' W 003°05'0 0.0
2018-May-10 12:51N 43°22' W 003°05'0 0.0
2018-May-10 11:27N 43°22' W 003°05'0 0.0
2018-May-10 10:51N 43°22' W 003°05'0 0.0
2018-May-10 10:30N 43°22' W 003°05'0 0.0
2018-May-10 09:54N 43°22' W 003°05'0 0.0
2018-May-10 09:30N 43°22' W 003°05'0 0.0
2018-May-10 08:57N 43°22' W 003°05'0 0.0
2018-May-10 08:30N 43°22' W 003°05'0 0.0
2018-May-10 08:00N 43°22' W 003°05'0 0.0
2018-May-10 07:30N 43°22' W 003°05'0 0.0
2018-May-10 07:00N 43°22' W 003°05'0 0.0
2018-May-10 06:30N 43°22' W 003°05'0 0.0
2018-May-10 05:39N 43°22' W 003°05'0 0.0
2018-May-10 05:27N 43°22' W 003°05'0 0.0
2018-May-10 05:00N 43°22' W 003°05'0 0.0
2018-May-10 04:03N 43°22' W 003°05'0 0.0
2018-May-10 04:00N 43°22' W 003°05'0 0.0
2018-May-10 03:06N 43°22' W 003°05'0 0.0
2018-May-10 03:00N 43°22' W 003°05'0 0.0
2018-May-10 02:00N 43°22' W 003°05'0 0.0
2018-May-10 01:30N 43°22' W 003°05'0 0.0
2018-May-10 01:00N 43°22' W 003°05'0 0.0
2018-May-10 00:24N 43°22' W 003°05'0 0.0
2018-May-10 00:00N 43°22' W 003°05'0 0.0
2018-May-09 23:30N 43°22' W 003°05'0 0.0
2018-May-09 22:57N 43°22' W 003°05'0 0.0
2018-May-09 22:30N 43°22' W 003°05'0 0.0
2018-May-09 22:00N 43°22' W 003°05'0 0.0
2018-May-09 21:27N 43°22' W 003°05'0 0.0
2018-May-09 20:57N 43°22' W 003°05'0 0.0
2018-May-09 20:27N 43°22' W 003°05'0 0.0
2018-May-09 20:00N 43°22' W 003°05'0 0.0
2018-May-09 19:30N 43°22' W 003°05'0 0.0
2018-May-09 18:53N 43°22' W 003°05'0 0.0
2018-May-09 15:35N 43°22' W 003°05'0 0.0
2018-May-09 15:20N 43°22' W 003°05'0 0.0
2018-May-09 13:53N 43°22' W 003°05'0 0.0
2018-May-09 13:29N 43°22' W 003°05'0 0.0
2018-May-09 12:59N 43°22' W 003°05'0 0.0
2018-May-09 12:29N 43°22' W 003°05'0 0.0
2018-May-09 11:59N 43°22' W 003°05'0 0.0
2018-May-09 11:29N 43°22' W 003°05'0 0.0
2018-May-09 10:59N 43°22' W 003°05'0 0.0
2018-May-09 10:26N 43°22' W 003°05'0 0.0
2018-May-09 09:59N 43°22' W 003°05'0 0.0
2018-May-09 09:29N 43°22' W 003°05'0 0.0
2018-May-09 08:59N 43°22' W 003°05'0 0.0
2018-May-09 08:29N 43°22' W 003°05'0 0.0
2018-May-09 07:59N 43°22' W 003°05'0 0.0
2018-May-09 07:30N 43°22' W 003°05'0 0.0
2018-May-09 06:54N 43°22' W 003°05'0 0.0
2018-May-09 06:30N 43°22' W 003°05'0 0.0
2018-May-09 06:00N 43°22' W 003°05'0 0.0
2018-May-09 05:30N 43°22' W 003°05'0 0.0
2018-May-09 04:57N 43°22' W 003°05'0 0.0
2018-May-09 04:30N 43°22' W 003°05'0 0.0
2018-May-09 03:57N 43°22' W 003°05'0 0.0
2018-May-09 03:30N 43°22' W 003°05'0 0.0
2018-May-09 03:00N 43°22' W 003°05'0 0.0
2018-May-09 02:30N 43°22' W 003°05'0 0.0
2018-May-09 02:00N 43°22' W 003°05'0 0.0
2018-May-09 01:30N 43°22' W 003°05'0 0.0
2018-May-09 00:57N 43°22' W 003°05'0 0.0
2018-May-09 00:30N 43°22' W 003°05'0 0.0
2018-May-08 23:45N 43°22' W 003°05'0 0.0
2018-May-08 23:27N 43°22' W 003°05'0 0.0
2018-May-08 22:57N 43°22' W 003°05'0 0.0
2018-May-08 22:27N 43°22' W 003°05'0 0.0
2018-May-08 21:57N 43°22' W 003°05'0 0.0
2018-May-08 21:27N 43°22' W 003°05'0 0.0
2018-May-08 20:57N 43°22' W 003°05'0 0.0
2018-May-08 20:27N 43°22' W 003°05'0 0.0
2018-May-08 20:00N 43°22' W 003°05'0 0.0
2018-May-08 19:30N 43°22' W 003°05'0 0.0
2018-May-08 18:27N 43°22' W 003°05'0 0.0
2018-May-08 17:36N 43°22' W 003°05'0 0.0
2018-May-08 17:15N 43°22' W 003°05'0 0.0
2018-May-08 17:00N 43°22' W 003°05'0 0.0
2018-May-08 16:24N 43°22' W 003°05'0 0.0
2018-May-08 15:54N 43°22' W 003°05'0 0.0
2018-May-08 15:30N 43°22' W 003°05'0 0.0
2018-May-08 15:00N 43°22' W 003°05'0 0.0
2018-May-08 14:30N 43°22' W 003°05'0 0.0
2018-May-08 14:00N 43°22' W 003°05'0 0.0
2018-May-08 13:30N 43°22' W 003°05'0 0.0
2018-May-08 12:57N 43°22' W 003°05'0 0.0
2018-May-08 12:00N 43°22' W 003°05'0 0.0
2018-May-08 11:30N 43°22' W 003°05'0 0.0
2018-May-08 10:57N 43°22' W 003°05'0 0.0
2018-May-08 10:27N 43°22' W 003°05'0 0.0
2018-May-08 09:57N 43°22' W 003°05'0 0.0
2018-May-08 09:30N 43°22' W 003°05'0 0.0
2018-May-08 09:00N 43°22' W 003°05'0 0.0
2018-May-08 08:30N 43°22' W 003°05'0 0.0
2018-May-08 08:00N 43°22' W 003°05'0 0.0
2018-May-08 07:30N 43°22' W 003°05'0 0.0
2018-May-08 06:42N 43°22' W 003°05'0 0.0
2018-May-08 06:26N 43°22' W 003°05'0 0.0
2018-May-08 06:00N 43°22' W 003°05'0 0.0
2018-May-08 05:30N 43°22' W 003°05'0 0.0
2018-May-08 05:00N 43°22' W 003°05'0 0.0
2018-May-08 04:30N 43°22' W 003°05'0 0.0
2018-May-08 03:57N 43°22' W 003°05'0 0.0
2018-May-08 03:09N 43°22' W 003°05'0 0.0
2018-May-08 03:00N 43°22' W 003°05'0 0.0
2018-May-08 02:30N 43°22' W 003°05'0 0.0
2018-May-08 01:57N 43°22' W 003°05'0 0.0
2018-May-08 01:30N 43°22' W 003°05'0 0.0
2018-May-08 01:00N 43°22' W 003°05'0 0.0
2018-May-08 00:27N 43°22' W 003°05'0 0.0
2018-May-07 23:57N 43°22' W 003°05'0 0.0
2018-May-07 23:09N 43°22' W 003°05'0 0.0
2018-May-07 21:57N 43°22' W 003°05'0 0.0
2018-May-07 21:21N 43°22' W 003°05'0 0.0
2018-May-07 20:51N 43°22' W 003°05'0 0.0
2018-May-07 18:21N 43°22' W 003°05'0 0.0
2018-May-07 16:20N 43°22' W 003°05'0 0.0
2018-May-07 15:59N 43°22' W 003°05'0 0.0
2018-May-07 15:29N 43°22' W 003°05'0 0.0
2018-May-07 15:00N 43°22' W 003°05'0 0.0
2018-May-07 14:29N 43°22' W 003°05'0 0.0
2018-May-07 13:59N 43°22' W 003°05'0 0.0
2018-May-07 13:29N 43°22' W 003°05'0 0.0
2018-May-07 12:59N 43°22' W 003°05'0 0.0
2018-May-07 12:26N 43°22' W 003°05'0 0.0
2018-May-07 11:59N 43°22' W 003°05'0 0.0
2018-May-07 11:29N 43°22' W 003°05'0 0.0
2018-May-07 10:59N 43°22' W 003°05'0 0.0
2018-May-07 05:38N 43°22' W 003°05'0 0.0
2018-May-07 05:23N 43°22' W 003°05'0 0.0
2018-May-07 04:56N 43°22' W 003°05'0 0.0
2018-May-07 04:29N 43°22' W 003°05'0 0.0
2018-May-07 04:00N 43°22' W 003°05'2 4.6
2018-May-07 03:30N 43°24' W 003°06'3 6.9
2018-May-07 03:00N 43°27' W 003°08'3 6.7
2018-May-07 02:30N 43°30' W 003°10'4 8.4
2018-May-07 02:00N 43°34' W 003°12'611.1
2018-May-07 01:30N 43°39' W 003°16'611.4
2018-May-07 00:59N 43°44' W 003°19'510.8
2018-May-07 00:28N 43°47' W 003°26'510.8
2018-May-07 00:00N 43°47' W 003°33'511.0
2018-May-06 23:30N 43°48' W 003°40'1010.9
2018-May-06 22:35N 43°49' W 003°54'211.0
2018-May-06 22:27N 43°49' W 003°56'5210.8
2018-May-06 17:37N 43°53' W 005°08'2010.9
2018-May-06 15:48N 43°54' W 005°36'7410.8
2018-May-06 08:59N 44°00' W 007°18'510.4
2018-May-06 08:29N 44°01' W 007°25'510.4
2018-May-06 08:00N 44°01' W 007°32'510.3
2018-May-06 07:30N 44°02' W 007°39'510.3
2018-May-06 07:00N 44°02' W 007°46'  
Track history (hours):
 
Tides and Currents Weather Stations Pressure Air Temp Water Temp Dewpoint Dewpoint Depression Visibility Wind Speed Wind Dir Waves Ship Positions

Sider Amy

Last reported at 2018-May-15 22:28 UTC. Time now 2018-May-24 08:32 UTC.
Position N 34°57' W 009°52'.
Warning: this ship's position is 8 days out of date.

Length 136 m; draft 7.8 m.

Type: Ship. MMSI: 235010170.

Date/timePositionNaut miles runAvg speedWind from/ knotsBaromVisibWave heightAir tempDewpointWater temp
2018-May-15 22:28N 34°57' W 009°52'1512.9
2018-May-15 21:17N 35°12' W 009°54'5413.1
2018-May-15 17:07N 36°06' W 010°02'413.1
2018-May-15 16:51N 36°09' W 010°02'10612.8
2018-May-15 08:34N 37°55' W 010°16'211.8
2018-May-15 08:24N 37°57' W 010°16'511.8
2018-May-15 08:01N 38°01' W 010°17'611.8
2018-May-15 07:31N 38°07' W 010°18'611.7
2018-May-15 07:00N 38°13' W 010°19'611.7
2018-May-15 06:28N 38°19' W 010°19'1211.8
2018-May-15 05:26N 38°31' W 010°21'1311.8
2018-May-15 04:21N 38°44' W 010°22'1912.1
2018-May-15 02:44N 39°04' W 010°22'353 8.3
2018-May-13 08:10N 43°51' W 005°49'3 7.4
2018-May-13 07:46N 43°50' W 005°45'2 7.1
2018-May-13 07:26N 43°50' W 005°42'3 7.0
2018-May-13 06:57N 43°50' W 005°37'3 6.9
2018-May-13 06:30N 43°50' W 005°33'3 6.2
2018-May-13 06:00N 43°49' W 005°28'3 6.0
2018-May-13 05:29N 43°49' W 005°24'3 6.2
2018-May-13 05:00N 43°49' W 005°20'4 6.2
2018-May-13 04:24N 43°48' W 005°15'3 6.3
2018-May-13 03:56N 43°48' W 005°11'3 6.2
2018-May-13 03:22N 43°48' W 005°06'2 6.2
2018-May-13 02:59N 43°48' W 005°03'53 6.0
2018-May-12 18:09N 43°43' W 003°50'1 5.8
2018-May-12 18:00N 43°43' W 003°49'3 5.9
2018-May-12 17:30N 43°43' W 003°45'3 5.6
2018-May-12 17:00N 43°42' W 003°41'3 5.9
2018-May-12 16:30N 43°42' W 003°37'3 6.0
2018-May-12 16:00N 43°41' W 003°33'3 5.7
2018-May-12 15:30N 43°40' W 003°29'3 5.4
2018-May-12 14:58N 43°39' W 003°26'3 5.8
2018-May-12 14:30N 43°38' W 003°22'3 5.6
2018-May-12 13:59N 43°36' W 003°19'2 5.1
2018-May-12 13:30N 43°34' W 003°17'3 5.6
2018-May-12 13:00N 43°32' W 003°14'3 6.0
2018-May-12 12:30N 43°30' W 003°11'3 6.3
2018-May-12 11:59N 43°28' W 003°08'3 6.6
2018-May-12 11:30N 43°25' W 003°06'3 6.8
2018-May-12 11:00N 43°22' W 003°04'1 1.8
2018-May-12 10:30N 43°21' W 003°03'0 0.0
2018-May-12 09:59N 43°21' W 003°03'0 0.0
2018-May-12 09:29N 43°21' W 003°03'0 0.0
2018-May-12 08:59N 43°21' W 003°03'0 0.0
2018-May-12 08:29N 43°21' W 003°03'0 0.0
2018-May-12 07:59N 43°21' W 003°03'0 0.0
2018-May-12 06:44N 43°21' W 003°03'0 0.0
2018-May-12 06:29N 43°21' W 003°03'0 0.0
2018-May-12 05:56N 43°21' W 003°03'0 0.0
2018-May-12 05:29N 43°21' W 003°03'0 0.0
2018-May-12 04:59N 43°21' W 003°03'0 0.0
2018-May-12 04:02N 43°21' W 003°03'0 0.0
2018-May-12 03:53N 43°21' W 003°03'0 0.0
2018-May-12 03:29N 43°21' W 003°03'0 0.0
2018-May-12 02:59N 43°21' W 003°03'0 0.0
2018-May-12 02:17N 43°21' W 003°03'0 0.0
2018-May-12 01:56N 43°21' W 003°03'0 0.0
2018-May-12 01:29N 43°21' W 003°03'0 0.0
2018-May-12 00:59N 43°21' W 003°03'0 0.0
2018-May-12 00:29N 43°21' W 003°03'0 0.0
2018-May-11 23:59N 43°21' W 003°03'0 0.0
2018-May-11 23:11N 43°21' W 003°03'0 0.0
2018-May-11 22:38N 43°21' W 003°03'0 0.0
2018-May-11 22:29N 43°21' W 003°03'0 0.0
2018-May-11 21:53N 43°21' W 003°03'0 0.0
2018-May-11 21:29N 43°21' W 003°03'0 0.0
2018-May-11 20:56N 43°21' W 003°03'0 0.0
2018-May-11 20:20N 43°21' W 003°03'0 0.0
2018-May-11 19:59N 43°21' W 003°03'0 0.0
2018-May-11 19:29N 43°21' W 003°03'0 0.0
2018-May-11 18:59N 43°21' W 003°03'0 0.0
2018-May-11 18:29N 43°21' W 003°03'0 0.0
2018-May-11 17:26N 43°21' W 003°03'0 0.0
2018-May-11 16:59N 43°21' W 003°03'0 0.0
2018-May-11 16:29N 43°21' W 003°03'0 0.0
2018-May-11 15:56N 43°21' W 003°03'0 0.0
2018-May-11 15:26N 43°21' W 003°03'0 0.0
2018-May-11 14:56N 43°21' W 003°03'0 0.0
2018-May-11 14:26N 43°21' W 003°03'0 0.0
2018-May-11 13:02N 43°21' W 003°03'0 0.0
2018-May-11 12:50N 43°21' W 003°03'0 0.0
2018-May-11 12:26N 43°21' W 003°03'0 0.0
2018-May-11 11:56N 43°21' W 003°03'0 0.0
2018-May-11 11:08N 43°21' W 003°03'0 0.0
2018-May-11 10:50N 43°21' W 003°03'0 0.0
2018-May-11 10:29N 43°21' W 003°03'0 0.0
2018-May-11 09:59N 43°21' W 003°03'0 0.0
2018-May-11 09:26N 43°21' W 003°03'0 0.0
2018-May-11 08:59N 43°21' W 003°03'0 0.0
2018-May-11 08:29N 43°21' W 003°03'0 0.0
2018-May-11 07:59N 43°21' W 003°03'0 0.0
2018-May-11 07:26N 43°21' W 003°03'0 0.0
2018-May-11 06:59N 43°21' W 003°03'0 0.0
2018-May-11 06:29N 43°21' W 003°03'0 0.0
2018-May-11 05:53N 43°21' W 003°03'0 0.0
2018-May-11 05:29N 43°21' W 003°03'0 0.0
2018-May-11 04:59N 43°21' W 003°03'0 0.0
2018-May-11 04:29N 43°21' W 003°03'0 0.0
2018-May-11 03:59N 43°21' W 003°03'0 0.0
2018-May-11 03:29N 43°21' W 003°03'0 0.0
2018-May-11 02:59N 43°21' W 003°03'0 0.0
2018-May-11 02:29N 43°21' W 003°03'0 0.0
2018-May-11 01:59N 43°21' W 003°03'0 0.0
2018-May-11 01:11N 43°21' W 003°03'0 0.0
2018-May-11 00:59N 43°21' W 003°03'0 0.0
2018-May-11 00:29N 43°21' W 003°03'0 0.0
2018-May-10 23:59N 43°21' W 003°03'0 0.0
2018-May-10 23:29N 43°21' W 003°03'0 0.0
2018-May-10 22:59N 43°21' W 003°03'0 0.0
2018-May-10 22:29N 43°21' W 003°03'0 0.0
2018-May-10 21:59N 43°21' W 003°03'0 0.0
2018-May-10 21:20N 43°21' W 003°03'0 0.0
2018-May-10 20:59N 43°21' W 003°03'0 0.0
2018-May-10 20:29N 43°21' W 003°03'0 0.0
2018-May-10 19:59N 43°21' W 003°03'0 0.0
2018-May-10 19:29N 43°21' W 003°03'0 0.0
2018-May-10 18:08N 43°21' W 003°03'0 0.0
2018-May-10 17:29N 43°21' W 003°03'0 0.0
2018-May-10 16:59N 43°21' W 003°03'0 0.2
2018-May-10 16:23N 43°21' W 003°03'1 1.4
2018-May-10 16:00N 43°22' W 003°04'1 0.3
2018-May-10 13:09N 43°22' W 003°05'0 0.0
2018-May-10 12:51N 43°22' W 003°05'0 0.0
2018-May-10 11:27N 43°22' W 003°05'0 0.0
2018-May-10 10:51N 43°22' W 003°05'0 0.0
2018-May-10 10:30N 43°22' W 003°05'0 0.0
2018-May-10 09:54N 43°22' W 003°05'0 0.0
2018-May-10 09:30N 43°22' W 003°05'0 0.0
2018-May-10 08:57N 43°22' W 003°05'0 0.0
2018-May-10 08:30N 43°22' W 003°05'0 0.0
2018-May-10 08:00N 43°22' W 003°05'0 0.0
2018-May-10 07:30N 43°22' W 003°05'0 0.0
2018-May-10 07:00N 43°22' W 003°05'0 0.0
2018-May-10 06:30N 43°22' W 003°05'0 0.0
2018-May-10 05:39N 43°22' W 003°05'0 0.0
2018-May-10 05:27N 43°22' W 003°05'0 0.0
2018-May-10 05:00N 43°22' W 003°05'0 0.0
2018-May-10 04:03N 43°22' W 003°05'0 0.0
2018-May-10 04:00N 43°22' W 003°05'0 0.0
2018-May-10 03:06N 43°22' W 003°05'0 0.0
2018-May-10 03:00N 43°22' W 003°05'0 0.0
2018-May-10 02:00N 43°22' W 003°05'0 0.0
2018-May-10 01:30N 43°22' W 003°05'0 0.0
2018-May-10 01:00N 43°22' W 003°05'0 0.0
2018-May-10 00:24N 43°22' W 003°05'0 0.0
2018-May-10 00:00N 43°22' W 003°05'0 0.0
2018-May-09 23:30N 43°22' W 003°05'0 0.0
2018-May-09 22:57N 43°22' W 003°05'0 0.0
2018-May-09 22:30N 43°22' W 003°05'0 0.0
2018-May-09 22:00N 43°22' W 003°05'0 0.0
2018-May-09 21:27N 43°22' W 003°05'0 0.0
2018-May-09 20:57N 43°22' W 003°05'0 0.0
2018-May-09 20:27N 43°22' W 003°05'0 0.0
2018-May-09 20:00N 43°22' W 003°05'0 0.0
2018-May-09 19:30N 43°22' W 003°05'0 0.0
2018-May-09 18:53N 43°22' W 003°05'0 0.0
2018-May-09 15:35N 43°22' W 003°05'0 0.0
2018-May-09 15:20N 43°22' W 003°05'0 0.0
2018-May-09 13:53N 43°22' W 003°05'0 0.0
2018-May-09 13:29N 43°22' W 003°05'0 0.0
2018-May-09 12:59N 43°22' W 003°05'0 0.0
2018-May-09 12:29N 43°22' W 003°05'0 0.0
2018-May-09 11:59N 43°22' W 003°05'0 0.0
2018-May-09 11:29N 43°22' W 003°05'0 0.0
2018-May-09 10:59N 43°22' W 003°05'0 0.0
2018-May-09 10:26N 43°22' W 003°05'0 0.0
2018-May-09 09:59N 43°22' W 003°05'0 0.0
2018-May-09 09:29N 43°22' W 003°05'0 0.0
2018-May-09 08:59N 43°22' W 003°05'0 0.0
2018-May-09 08:29N 43°22' W 003°05'0 0.0
2018-May-09 07:59N 43°22' W 003°05'0 0.0
2018-May-09 07:30N 43°22' W 003°05'0 0.0
2018-May-09 06:54N 43°22' W 003°05'0 0.0
2018-May-09 06:30N 43°22' W 003°05'0 0.0
2018-May-09 06:00N 43°22' W 003°05'0 0.0
2018-May-09 05:30N 43°22' W 003°05'0 0.0
2018-May-09 04:57N 43°22' W 003°05'0 0.0
2018-May-09 04:30N 43°22' W 003°05'0 0.0
2018-May-09 03:57N 43°22' W 003°05'0 0.0
2018-May-09 03:30N 43°22' W 003°05'0 0.0
2018-May-09 03:00N 43°22' W 003°05'0 0.0
2018-May-09 02:30N 43°22' W 003°05'0 0.0
2018-May-09 02:00N 43°22' W 003°05'0 0.0
2018-May-09 01:30N 43°22' W 003°05'0 0.0
2018-May-09 00:57N 43°22' W 003°05'0 0.0
2018-May-09 00:30N 43°22' W 003°05'0 0.0
2018-May-08 23:45N 43°22' W 003°05'0 0.0
2018-May-08 23:27N 43°22' W 003°05'0 0.0
2018-May-08 22:57N 43°22' W 003°05'0 0.0
2018-May-08 22:27N 43°22' W 003°05'0 0.0
2018-May-08 21:57N 43°22' W 003°05'0 0.0
2018-May-08 21:27N 43°22' W 003°05'0 0.0
2018-May-08 20:57N 43°22' W 003°05'0 0.0
2018-May-08 20:27N 43°22' W 003°05'0 0.0
2018-May-08 20:00N 43°22' W 003°05'0 0.0
2018-May-08 19:30N 43°22' W 003°05'0 0.0
2018-May-08 18:27N 43°22' W 003°05'0 0.0
2018-May-08 17:36N 43°22' W 003°05'0 0.0
2018-May-08 17:15N 43°22' W 003°05'0 0.0
2018-May-08 17:00N 43°22' W 003°05'0 0.0
2018-May-08 16:24N 43°22' W 003°05'0 0.0
2018-May-08 15:54N 43°22' W 003°05'0 0.0
2018-May-08 15:30N 43°22' W 003°05'0 0.0
2018-May-08 15:00N 43°22' W 003°05'0 0.0
2018-May-08 14:30N 43°22' W 003°05'0 0.0
2018-May-08 14:00N 43°22' W 003°05'0 0.0
2018-May-08 13:30N 43°22' W 003°05'0 0.0
2018-May-08 12:57N 43°22' W 003°05'0 0.0
2018-May-08 12:00N 43°22' W 003°05'0 0.0
2018-May-08 11:30N 43°22' W 003°05'0 0.0
2018-May-08 10:57N 43°22' W 003°05'0 0.0
2018-May-08 10:27N 43°22' W 003°05'0 0.0
2018-May-08 09:57N 43°22' W 003°05'0 0.0
2018-May-08 09:30N 43°22' W 003°05'0 0.0
2018-May-08 09:00N 43°22' W 003°05'0 0.0
2018-May-08 08:30N 43°22' W 003°05'0 0.0
2018-May-08 08:00N 43°22' W 003°05'0 0.0
2018-May-08 07:30N 43°22' W 003°05'0 0.0
2018-May-08 06:42N 43°22' W 003°05'0 0.0
2018-May-08 06:26N 43°22' W 003°05'0 0.0
2018-May-08 06:00N 43°22' W 003°05'0 0.0
2018-May-08 05:30N 43°22' W 003°05'0 0.0
2018-May-08 05:00N 43°22' W 003°05'0 0.0
2018-May-08 04:30N 43°22' W 003°05'0 0.0
2018-May-08 03:57N 43°22' W 003°05'0 0.0
2018-May-08 03:09N 43°22' W 003°05'0 0.0
2018-May-08 03:00N 43°22' W 003°05'0 0.0
2018-May-08 02:30N 43°22' W 003°05'0 0.0
2018-May-08 01:57N 43°22' W 003°05'0 0.0
2018-May-08 01:30N 43°22' W 003°05'0 0.0
2018-May-08 01:00N 43°22' W 003°05'0 0.0
2018-May-08 00:27N 43°22' W 003°05'0 0.0
2018-May-07 23:57N 43°22' W 003°05'0 0.0
2018-May-07 23:09N 43°22' W 003°05'0 0.0
2018-May-07 21:57N 43°22' W 003°05'0 0.0
2018-May-07 21:21N 43°22' W 003°05'0 0.0
2018-May-07 20:51N 43°22' W 003°05'0 0.0
2018-May-07 18:21N 43°22' W 003°05'0 0.0
2018-May-07 16:20N 43°22' W 003°05'0 0.0
2018-May-07 15:59N 43°22' W 003°05'0 0.0
2018-May-07 15:29N 43°22' W 003°05'0 0.0
2018-May-07 15:00N 43°22' W 003°05'0 0.0
2018-May-07 14:29N 43°22' W 003°05'0 0.0
2018-May-07 13:59N 43°22' W 003°05'0 0.0
2018-May-07 13:29N 43°22' W 003°05'0 0.0
2018-May-07 12:59N 43°22' W 003°05'0 0.0
2018-May-07 12:26N 43°22' W 003°05'0 0.0
2018-May-07 11:59N 43°22' W 003°05'0 0.0
2018-May-07 11:29N 43°22' W 003°05'0 0.0
2018-May-07 10:59N 43°22' W 003°05'0 0.0
2018-May-07 05:38N 43°22' W 003°05'0 0.0
2018-May-07 05:23N 43°22' W 003°05'0 0.0
2018-May-07 04:56N 43°22' W 003°05'0 0.0
2018-May-07 04:29N 43°22' W 003°05'0 0.0
2018-May-07 04:00N 43°22' W 003°05'2 4.6
2018-May-07 03:30N 43°24' W 003°06'3 6.9
2018-May-07 03:00N 43°27' W 003°08'3 6.7
2018-May-07 02:30N 43°30' W 003°10'4 8.4
2018-May-07 02:00N 43°34' W 003°12'611.1
2018-May-07 01:30N 43°39' W 003°16'611.4
2018-May-07 00:59N 43°44' W 003°19'510.8
2018-May-07 00:28N 43°47' W 003°26'510.8
2018-May-07 00:00N 43°47' W 003°33'511.0
2018-May-06 23:30N 43°48' W 003°40'1010.9
2018-May-06 22:35N 43°49' W 003°54'211.0
2018-May-06 22:27N 43°49' W 003°56'5210.8
2018-May-06 17:37N 43°53' W 005°08'2010.9
2018-May-06 15:48N 43°54' W 005°36'7410.8
2018-May-06 08:59N 44°00' W 007°18'510.4
2018-May-06 08:29N 44°01' W 007°25'510.4
2018-May-06 08:00N 44°01' W 007°32'510.3
2018-May-06 07:30N 44°02' W 007°39'510.3
2018-May-06 07:00N 44°02' W 007°46'  

Dump ship's entire track history